createdAt,value
2019-03-12T00:00:53.778Z,3.15
2019-03-12T00:01:53.768Z,3.13
2019-03-12T00:02:53.758Z,3.13
2019-03-12T00:03:53.784Z,3.15
2019-03-12T00:04:53.736Z,3.18
2019-03-12T00:05:53.726Z,3.21
2019-03-12T00:06:53.718Z,3.11
2019-03-12T00:07:53.705Z,3.13
2019-03-12T00:08:53.694Z,3.10
2019-03-12T00:09:54.057Z,3.17
2019-03-12T00:10:53.674Z,3.20
2019-03-12T00:11:53.667Z,3.10
2019-03-12T00:12:53.652Z,3.18
2019-03-12T00:13:53.639Z,3.18
2019-03-12T00:14:53.630Z,3.26
2019-03-12T00:15:53.655Z,3.28
2019-03-12T00:16:53.609Z,3.31
2019-03-12T00:17:53.597Z,3.17
2019-03-12T00:18:53.713Z,3.24
2019-03-12T00:19:53.576Z,3.24
2019-03-12T00:20:53.569Z,3.29
2019-03-12T00:21:53.593Z,3.28
2019-03-12T00:22:53.545Z,3.23
2019-03-12T00:23:53.534Z,3.24
2019-03-12T00:24:53.523Z,3.24
2019-03-12T00:25:53.512Z,3.24
2019-03-12T00:26:53.500Z,3.23
2019-03-12T00:27:53.530Z,3.29
2019-03-12T00:28:53.480Z,3.31
2019-03-12T00:29:53.470Z,3.29
2019-03-12T00:30:53.459Z,3.28
2019-03-12T00:31:53.448Z,3.24
2019-03-12T00:32:55.810Z,3.23
2019-03-12T00:33:53.461Z,3.26
2019-03-12T00:34:53.415Z,3.26
2019-03-12T00:35:53.404Z,3.18
2019-03-12T00:36:53.395Z,3.26
2019-03-12T00:37:53.384Z,3.14
2019-03-12T00:38:53.373Z,3.18
2019-03-12T00:39:53.402Z,3.14
2019-03-12T00:40:53.351Z,3.21
2019-03-12T00:41:53.341Z,3.28
2019-03-12T00:42:53.331Z,3.17
2019-03-12T00:43:53.321Z,3.11
2019-03-12T00:44:53.309Z,3.18
2019-03-12T00:45:53.335Z,3.14
2019-03-12T00:46:53.289Z,3.15
2019-03-12T00:47:53.277Z,3.18
2019-03-12T00:48:53.266Z,3.13
2019-03-12T00:49:53.255Z,3.15
2019-03-12T00:50:53.246Z,3.20
2019-03-12T00:51:53.271Z,3.21
2019-03-12T00:52:53.224Z,3.24
2019-03-12T00:53:53.214Z,3.18
2019-03-12T00:54:53.219Z,3.17
2019-03-12T00:55:53.190Z,3.24
2019-03-12T00:56:53.181Z,3.15
2019-03-12T00:57:53.206Z,3.24
2019-03-12T00:58:53.157Z,3.21
2019-03-12T00:59:56.230Z,3.18
2019-03-12T01:00:53.140Z,3.21
2019-03-12T01:01:53.126Z,3.23
2019-03-12T01:02:53.114Z,3.14
2019-03-12T01:03:53.145Z,3.26
2019-03-12T01:04:53.096Z,3.17
2019-03-12T01:05:53.083Z,3.21
2019-03-12T01:06:53.072Z,3.11
2019-03-12T01:07:53.062Z,3.14
2019-03-12T01:08:53.051Z,3.13
2019-03-12T01:09:53.077Z,3.23
2019-03-12T01:10:53.030Z,3.15
2019-03-12T01:11:53.018Z,3.23
2019-03-12T01:12:53.009Z,3.21
2019-03-12T01:13:52.997Z,3.21
2019-03-12T01:14:52.987Z,3.28
2019-03-12T01:15:53.012Z,3.33
2019-03-12T01:16:52.966Z,3.39
2019-03-12T01:17:52.957Z,3.35
2019-03-12T01:18:52.946Z,3.33
2019-03-12T01:19:52.934Z,3.29
2019-03-12T01:20:52.923Z,3.35
2019-03-12T01:21:52.952Z,3.32
2019-03-12T01:22:52.904Z,3.36
2019-03-12T01:23:52.894Z,3.26
2019-03-12T01:24:52.882Z,3.26
2019-03-12T01:25:52.869Z,3.28
2019-03-12T01:26:52.862Z,3.24
2019-03-12T01:27:52.885Z,3.32
2019-03-12T01:28:52.838Z,3.26
2019-03-12T01:29:52.829Z,3.35
2019-03-12T01:30:52.816Z,3.35
2019-03-12T01:31:52.806Z,3.31
2019-03-12T01:32:52.796Z,3.28
2019-03-12T01:33:52.820Z,3.29
2019-03-12T01:34:52.773Z,3.28
2019-03-12T01:35:52.764Z,3.40
2019-03-12T01:36:52.752Z,3.26
2019-03-12T01:37:52.741Z,3.35
2019-03-12T01:38:52.730Z,3.28
2019-03-12T01:39:52.763Z,3.33
2019-03-12T01:40:52.710Z,3.32
2019-03-12T01:41:52.699Z,3.32
2019-03-12T01:42:52.739Z,3.40
2019-03-12T01:43:52.676Z,3.29
2019-03-12T01:44:52.667Z,3.40
2019-03-12T01:45:52.693Z,3.39
2019-03-12T01:46:52.647Z,3.29
2019-03-12T01:47:52.636Z,3.26
2019-03-12T01:48:52.623Z,3.26
2019-03-12T01:49:52.613Z,3.29
2019-03-12T01:50:52.603Z,3.29
2019-03-12T01:51:52.633Z,3.32
2019-03-12T01:52:52.581Z,3.31
2019-03-12T01:53:52.570Z,3.29
2019-03-12T01:54:52.563Z,3.29
2019-03-12T01:55:52.551Z,3.31
2019-03-12T01:56:52.538Z,3.35
2019-03-12T01:57:52.550Z,3.39
2019-03-12T01:58:52.516Z,3.32
2019-03-12T01:59:52.506Z,3.26
2019-03-12T02:00:52.495Z,3.33
2019-03-12T02:01:52.486Z,3.31
2019-03-12T02:02:52.515Z,3.33
2019-03-12T02:03:52.465Z,3.33
2019-03-12T02:04:52.451Z,3.35
2019-03-12T02:05:52.441Z,3.42
2019-03-12T02:06:52.431Z,3.36
2019-03-12T02:07:52.419Z,3.39
2019-03-12T02:08:52.446Z,3.31
2019-03-12T02:09:52.399Z,3.29
2019-03-12T02:10:52.387Z,3.35
2019-03-12T02:11:52.392Z,3.35
2019-03-12T02:12:52.365Z,3.32
2019-03-12T02:13:52.356Z,3.29
2019-03-12T02:14:52.372Z,3.29
2019-03-12T02:15:52.335Z,3.31
2019-03-12T02:16:52.324Z,3.29
2019-03-12T02:17:52.399Z,3.29
2019-03-12T02:18:52.304Z,3.28
2019-03-12T02:19:52.327Z,3.29
2019-03-12T02:20:52.283Z,3.32
2019-03-12T02:21:52.270Z,3.28
2019-03-12T02:22:52.259Z,3.31
2019-03-12T02:23:52.250Z,3.31
2019-03-12T02:24:53.132Z,3.35
2019-03-12T02:25:52.264Z,3.32
2019-03-12T02:26:52.217Z,3.35
2019-03-12T02:27:52.207Z,3.21
2019-03-12T02:28:52.196Z,3.24
2019-03-12T02:29:52.187Z,3.33
2019-03-12T02:30:52.187Z,3.33
2019-03-12T02:31:52.204Z,3.32
2019-03-12T02:32:52.157Z,3.42
2019-03-12T02:33:52.146Z,3.42
2019-03-12T02:34:52.132Z,3.39
2019-03-12T02:35:52.121Z,3.42
2019-03-12T02:36:52.111Z,3.42
2019-03-12T02:37:52.143Z,3.36
2019-03-12T02:38:52.091Z,3.50
2019-03-12T02:39:52.077Z,3.43
2019-03-12T02:40:52.067Z,3.42
2019-03-12T02:41:52.060Z,3.40
2019-03-12T02:42:52.084Z,3.42
2019-03-12T02:43:52.037Z,3.43
2019-03-12T02:44:52.025Z,3.40
2019-03-12T02:45:52.019Z,3.42
2019-03-12T02:46:52.004Z,3.45
2019-03-12T02:47:51.993Z,3.42
2019-03-12T02:48:52.022Z,3.43
2019-03-12T02:49:51.975Z,3.40
2019-03-12T02:50:51.969Z,3.39
2019-03-12T02:51:51.953Z,3.47
2019-03-12T02:52:51.974Z,3.39
2019-03-12T02:53:51.940Z,3.43
2019-03-12T02:54:51.948Z,3.42
2019-03-12T02:55:51.911Z,3.42
2019-03-12T02:56:51.898Z,3.47
2019-03-12T02:57:51.894Z,3.39
2019-03-12T02:58:51.875Z,3.42
2019-03-12T02:59:51.905Z,3.47
2019-03-12T03:00:51.855Z,3.39
2019-03-12T03:01:51.844Z,3.42
2019-03-12T03:02:51.832Z,3.42
2019-03-12T03:03:51.820Z,3.42
2019-03-12T03:04:54.238Z,3.48
2019-03-12T03:05:51.845Z,3.40
2019-03-12T03:06:51.793Z,3.39
2019-03-12T03:07:51.779Z,3.39
2019-03-12T03:08:51.771Z,3.39
2019-03-12T03:09:51.762Z,3.45
2019-03-12T03:10:51.748Z,3.40
2019-03-12T03:11:51.776Z,3.42
2019-03-12T03:12:51.726Z,3.39
2019-03-12T03:13:51.720Z,3.42
2019-03-12T03:14:51.711Z,3.39
2019-03-12T03:15:51.695Z,3.43
2019-03-12T03:16:51.688Z,3.36
2019-03-12T03:17:51.698Z,3.42
2019-03-12T03:18:51.665Z,3.40
2019-03-12T03:19:51.667Z,3.39
2019-03-12T03:20:51.659Z,3.40
2019-03-12T03:21:51.630Z,3.40
2019-03-12T03:22:51.660Z,3.40
2019-03-12T03:23:51.609Z,3.36
2019-03-12T03:24:51.601Z,3.47
2019-03-12T03:25:51.587Z,3.43
2019-03-12T03:26:51.575Z,3.42
2019-03-12T03:27:51.578Z,3.43
2019-03-12T03:28:51.589Z,3.50
2019-03-12T03:29:51.545Z,3.45
2019-03-12T03:30:51.545Z,3.45
2019-03-12T03:31:51.537Z,3.45
2019-03-12T03:32:51.512Z,3.42
2019-03-12T03:33:51.511Z,3.50
2019-03-12T03:34:51.570Z,3.51
2019-03-12T03:35:51.486Z,3.47
2019-03-12T03:36:51.470Z,3.48
2019-03-12T03:37:51.461Z,3.48
2019-03-12T03:38:51.448Z,3.51
2019-03-12T03:39:51.465Z,3.47
2019-03-12T03:40:51.431Z,3.45
2019-03-12T03:41:51.426Z,3.51
2019-03-12T03:42:51.409Z,3.47
2019-03-12T03:43:51.397Z,3.47
2019-03-12T03:44:51.416Z,3.51
2019-03-12T03:45:51.373Z,3.51
2019-03-12T03:46:51.363Z,3.50
2019-03-12T03:47:51.359Z,3.50
2019-03-12T03:48:51.341Z,3.47
2019-03-12T03:49:51.355Z,3.51
2019-03-12T03:50:51.320Z,3.54
2019-03-12T03:51:51.315Z,3.54
2019-03-12T03:52:51.302Z,3.55
2019-03-12T03:53:51.288Z,3.57
2019-03-12T03:54:51.302Z,3.54
2019-03-12T03:55:51.267Z,3.55
2019-03-12T03:56:51.258Z,3.58
2019-03-12T03:57:51.247Z,3.54
2019-03-12T03:58:51.235Z,3.57
2019-03-12T03:59:51.250Z,3.58
2019-03-12T04:00:51.215Z,3.58
2019-03-12T04:01:51.210Z,3.60
2019-03-12T04:02:51.192Z,3.58
2019-03-12T04:03:51.186Z,3.55
2019-03-12T04:04:51.197Z,3.57
2019-03-12T04:05:51.161Z,3.55
2019-03-12T04:06:51.149Z,3.62
2019-03-12T04:07:51.141Z,3.62
2019-03-12T04:08:51.132Z,3.61
2019-03-12T04:09:51.154Z,3.69
2019-03-12T04:10:51.107Z,3.68
2019-03-12T04:11:51.105Z,3.65
2019-03-12T04:12:51.138Z,3.66
2019-03-12T04:13:51.075Z,3.69
2019-03-12T04:14:51.065Z,3.72
2019-03-12T04:15:51.082Z,3.69
2019-03-12T04:16:51.095Z,3.76
2019-03-12T04:17:51.033Z,3.70
2019-03-12T04:18:51.022Z,3.73
2019-03-12T04:19:51.015Z,3.72
2019-03-12T04:20:51.085Z,3.70
2019-03-12T04:21:50.989Z,3.69
2019-03-12T04:22:50.980Z,3.72
2019-03-12T04:23:50.973Z,3.73
2019-03-12T04:24:50.957Z,3.66
2019-03-12T04:25:50.972Z,3.72
2019-03-12T04:26:50.945Z,3.68
2019-03-12T04:27:50.940Z,3.70
2019-03-12T04:28:50.915Z,3.69
2019-03-12T04:29:50.904Z,3.72
2019-03-12T04:30:50.919Z,3.66
2019-03-12T04:31:50.882Z,3.66
2019-03-12T04:32:50.872Z,3.73
2019-03-12T04:33:50.863Z,3.69
2019-03-12T04:34:50.851Z,3.73
2019-03-12T04:35:50.865Z,3.78
2019-03-12T04:36:50.829Z,3.73
2019-03-12T04:37:50.815Z,3.73
2019-03-12T04:38:50.815Z,3.86
2019-03-12T04:39:50.797Z,3.78
2019-03-12T04:40:50.809Z,3.75
2019-03-12T04:41:50.775Z,3.76
2019-03-12T04:42:50.766Z,3.72
2019-03-12T04:43:50.753Z,3.79
2019-03-12T04:44:50.743Z,3.83
2019-03-12T04:45:50.758Z,3.79
2019-03-12T04:46:50.723Z,3.80
2019-03-12T04:47:50.716Z,3.80
2019-03-12T04:48:50.702Z,3.86
2019-03-12T04:49:50.692Z,3.79
2019-03-12T04:50:50.704Z,3.83
2019-03-12T04:51:50.669Z,3.83
2019-03-12T04:52:50.658Z,3.83
2019-03-12T04:53:50.647Z,3.72
2019-03-12T04:54:50.636Z,3.78
2019-03-12T04:55:50.653Z,3.78
2019-03-12T04:56:50.614Z,3.75
2019-03-12T04:57:50.608Z,3.78
2019-03-12T04:58:50.598Z,3.78
2019-03-12T04:59:50.596Z,3.79
2019-03-12T05:00:50.598Z,3.83
2019-03-12T05:01:50.565Z,3.79
2019-03-12T05:02:50.551Z,3.75
2019-03-12T05:03:50.542Z,3.79
2019-03-12T05:04:50.529Z,3.66
2019-03-12T05:05:50.548Z,3.72
2019-03-12T05:06:50.508Z,3.66
2019-03-12T05:07:50.496Z,3.68
2019-03-12T05:08:50.486Z,3.60
2019-03-12T05:09:50.476Z,3.72
2019-03-12T05:10:50.491Z,3.66
2019-03-12T05:11:50.455Z,3.61
2019-03-12T05:12:50.445Z,3.66
2019-03-12T05:13:50.432Z,3.66
2019-03-12T05:14:50.424Z,3.60
2019-03-12T05:15:50.435Z,3.57
2019-03-12T05:16:50.402Z,3.66
2019-03-12T05:17:50.391Z,3.65
2019-03-12T05:18:50.380Z,3.60
2019-03-12T05:19:50.369Z,3.60
2019-03-12T05:20:50.385Z,3.65
2019-03-12T05:21:50.348Z,3.62
2019-03-12T05:22:50.337Z,3.66
2019-03-12T05:23:50.327Z,3.65
2019-03-12T05:24:50.315Z,3.57
2019-03-12T05:25:50.331Z,3.58
2019-03-12T05:26:50.300Z,3.60
2019-03-12T05:27:50.282Z,3.54
2019-03-12T05:28:50.273Z,3.57
2019-03-12T05:29:50.265Z,3.55
2019-03-12T05:30:50.275Z,3.60
2019-03-12T05:31:50.241Z,3.51
2019-03-12T05:32:50.230Z,3.52
2019-03-12T05:33:50.221Z,3.52
2019-03-12T05:34:50.207Z,3.54
2019-03-12T05:35:50.230Z,3.61
2019-03-12T05:36:50.188Z,3.54
2019-03-12T05:37:50.178Z,3.48
2019-03-12T05:38:50.183Z,3.47
2019-03-12T05:39:50.157Z,3.60
2019-03-12T05:40:50.170Z,3.61
2019-03-12T05:41:50.134Z,3.61
2019-03-12T05:42:50.124Z,3.57
2019-03-12T05:43:50.114Z,3.57
2019-03-12T05:44:50.103Z,3.54
2019-03-12T05:45:50.116Z,3.58
2019-03-12T05:46:50.085Z,3.60
2019-03-12T05:47:50.069Z,3.68
2019-03-12T05:48:50.059Z,3.68
2019-03-12T05:49:50.047Z,3.60
2019-03-12T05:50:50.063Z,3.69
2019-03-12T05:51:50.027Z,3.62
2019-03-12T05:52:50.017Z,3.69
2019-03-12T05:53:50.014Z,3.73
2019-03-12T05:54:49.994Z,3.62
2019-03-12T05:55:50.010Z,3.69
2019-03-12T05:56:49.975Z,3.65
2019-03-12T05:57:49.962Z,3.69
2019-03-12T05:58:49.952Z,3.66
2019-03-12T05:59:49.944Z,3.69
2019-03-12T06:00:49.954Z,3.68
2019-03-12T06:01:49.922Z,3.60
2019-03-12T06:02:49.915Z,3.68
2019-03-12T06:03:49.899Z,3.66
2019-03-12T06:04:49.889Z,3.62
2019-03-12T06:05:49.917Z,3.61
2019-03-12T06:06:49.896Z,3.69
2019-03-12T06:07:49.858Z,3.75
2019-03-12T06:08:49.847Z,3.66
2019-03-12T06:09:49.837Z,3.70
2019-03-12T06:10:49.865Z,3.75
2019-03-12T06:11:56.856Z,3.66
2019-03-12T06:12:49.803Z,3.76
2019-03-12T06:13:49.793Z,3.68
2019-03-12T06:14:49.781Z,3.75
2019-03-12T06:15:53.027Z,3.70
2019-03-12T06:16:49.762Z,3.62
2019-03-12T06:17:49.749Z,3.69
2019-03-12T06:18:49.740Z,3.72
2019-03-12T06:19:49.731Z,3.73
2019-03-12T06:20:49.742Z,3.79
2019-03-12T06:21:49.707Z,3.79
2019-03-12T06:22:49.697Z,3.80
2019-03-12T06:23:49.687Z,3.75
2019-03-12T06:24:49.700Z,3.72
2019-03-12T06:25:49.694Z,3.76
2019-03-12T06:26:49.653Z,3.78
2019-03-12T06:27:49.644Z,3.78
2019-03-12T06:28:49.633Z,3.76
2019-03-12T06:29:49.622Z,3.78
2019-03-12T06:30:49.638Z,3.83
2019-03-12T06:31:49.599Z,3.78
2019-03-12T06:32:49.591Z,3.84
2019-03-12T06:33:49.581Z,3.79
2019-03-12T06:34:49.569Z,3.87
2019-03-12T06:35:49.581Z,3.80
2019-03-12T06:36:49.549Z,3.91
2019-03-12T06:37:49.536Z,3.87
2019-03-12T06:38:49.526Z,3.79
2019-03-12T06:39:49.518Z,3.96
2019-03-12T06:40:49.529Z,4.04
2019-03-12T06:41:49.495Z,4.04
2019-03-12T06:42:49.485Z,4.00
2019-03-12T06:43:49.474Z,4.08
2019-03-12T06:44:49.460Z,4.11
2019-03-12T06:45:49.475Z,4.22
2019-03-12T06:46:49.439Z,4.09
2019-03-12T06:47:49.428Z,4.14
2019-03-12T06:48:49.506Z,4.12
2019-03-12T06:49:49.422Z,4.20
2019-03-12T06:50:49.421Z,4.04
2019-03-12T06:51:49.386Z,3.97
2019-03-12T06:52:49.375Z,4.00
2019-03-12T06:53:49.365Z,4.04
2019-03-12T06:54:49.355Z,3.97
2019-03-12T06:55:49.367Z,3.97
2019-03-12T06:56:49.333Z,3.97
2019-03-12T06:57:49.324Z,4.00
2019-03-12T06:58:49.328Z,4.04
2019-03-12T06:59:49.302Z,4.04
2019-03-12T07:00:49.343Z,3.98
2019-03-12T07:01:49.278Z,3.98
2019-03-12T07:02:49.274Z,3.96
2019-03-12T07:03:49.262Z,4.06
2019-03-12T07:04:49.251Z,3.98
2019-03-12T07:05:49.263Z,3.96
2019-03-12T07:06:49.227Z,4.05
2019-03-12T07:07:49.217Z,4.11
2019-03-12T07:08:49.212Z,4.06
2019-03-12T07:09:49.195Z,4.09
2019-03-12T07:10:49.208Z,4.20
2019-03-12T07:11:49.173Z,4.16
2019-03-12T07:12:49.164Z,4.26
2019-03-12T07:13:49.153Z,4.30
2019-03-12T07:14:49.152Z,4.30
2019-03-12T07:15:49.159Z,4.23
2019-03-12T07:16:49.120Z,4.26
2019-03-12T07:17:49.109Z,4.24
2019-03-12T07:18:49.098Z,4.27
2019-03-12T07:19:49.093Z,4.37
2019-03-12T07:20:49.103Z,4.29
2019-03-12T07:21:49.068Z,4.36
2019-03-12T07:22:49.056Z,4.36
2019-03-12T07:23:49.048Z,4.34
2019-03-12T07:24:49.035Z,4.44
2019-03-12T07:25:50.910Z,4.45
2019-03-12T07:26:49.017Z,4.42
2019-03-12T07:27:49.004Z,4.32
2019-03-12T07:28:50.652Z,4.41
2019-03-12T07:29:48.990Z,4.40
2019-03-12T07:30:49.004Z,4.34
2019-03-12T07:31:48.966Z,4.34
2019-03-12T07:32:48.954Z,4.33
2019-03-12T07:33:48.940Z,4.41
2019-03-12T07:34:48.932Z,4.40
2019-03-12T07:35:48.946Z,4.50
2019-03-12T07:36:48.911Z,4.47
2019-03-12T07:37:48.908Z,4.50
2019-03-12T07:38:48.887Z,4.62
2019-03-12T07:39:48.879Z,4.60
2019-03-12T07:40:48.892Z,4.59
2019-03-12T07:41:48.859Z,4.69
2019-03-12T07:42:48.848Z,4.82
2019-03-12T07:43:48.835Z,4.82
2019-03-12T07:44:48.827Z,4.88
2019-03-12T07:45:48.843Z,4.84
2019-03-12T07:46:48.807Z,4.84
2019-03-12T07:47:48.793Z,4.86
2019-03-12T07:48:48.785Z,4.97
2019-03-12T07:49:48.773Z,4.96
2019-03-12T07:50:48.794Z,4.94
2019-03-12T07:51:48.769Z,4.85
2019-03-12T07:52:48.801Z,4.94
2019-03-12T07:53:58.905Z,4.91
2019-03-12T07:54:49.716Z,4.97
2019-03-12T07:55:48.731Z,5.06
2019-03-12T07:56:48.697Z,5.04
2019-03-12T07:57:48.685Z,5.03
2019-03-12T07:58:48.675Z,5.03
2019-03-12T07:59:48.665Z,5.13
2019-03-12T08:00:48.680Z,5.06
2019-03-12T08:01:48.640Z,5.03
2019-03-12T08:02:48.634Z,4.92
2019-03-12T08:03:48.622Z,4.99
2019-03-12T08:04:48.608Z,4.96
2019-03-12T08:05:48.624Z,4.92
2019-03-12T08:06:48.589Z,4.96
2019-03-12T08:07:48.577Z,4.94
2019-03-12T08:08:48.572Z,5.04
2019-03-12T08:09:48.555Z,5.03
2019-03-12T08:10:48.571Z,4.99
2019-03-12T08:11:48.533Z,4.97
2019-03-12T08:12:48.522Z,5.04
2019-03-12T08:13:48.512Z,5.10
2019-03-12T08:14:48.499Z,4.96
2019-03-12T08:15:50.510Z,4.97
2019-03-12T08:16:48.476Z,5.06
2019-03-12T08:17:48.470Z,5.07
2019-03-12T08:18:48.456Z,5.09
2019-03-12T08:19:48.445Z,5.03
2019-03-12T08:20:48.458Z,5.06
2019-03-12T08:21:49.809Z,5.07
2019-03-12T08:22:48.415Z,5.10
2019-03-12T08:23:48.402Z,5.07
2019-03-12T08:24:48.391Z,5.09
2019-03-12T08:25:48.406Z,5.17
2019-03-12T08:26:48.368Z,5.21
2019-03-12T08:27:48.360Z,5.27
2019-03-12T08:28:48.348Z,5.24
2019-03-12T08:29:48.335Z,5.21
2019-03-12T08:30:48.350Z,5.25
2019-03-12T08:31:48.313Z,5.27
2019-03-12T08:32:48.307Z,5.35
2019-03-12T08:33:50.799Z,5.38
2019-03-12T08:34:48.288Z,5.40
2019-03-12T08:35:48.296Z,5.49
2019-03-12T08:36:48.266Z,5.43
2019-03-12T08:37:48.254Z,5.49
2019-03-12T08:38:48.239Z,5.49
2019-03-12T08:39:48.230Z,5.51
2019-03-12T08:40:52.671Z,5.39
2019-03-12T08:41:48.207Z,5.46
2019-03-12T08:42:54.701Z,5.39
2019-03-12T08:43:49.185Z,5.36
2019-03-12T08:44:48.175Z,5.40
2019-03-12T08:45:48.903Z,5.39
2019-03-12T08:46:48.158Z,5.42
2019-03-12T08:47:48.141Z,5.46
2019-03-12T08:48:48.133Z,5.48
2019-03-12T08:49:48.123Z,5.39
2019-03-12T08:50:48.136Z,5.53
2019-03-12T08:51:48.101Z,5.60
2019-03-12T08:52:48.092Z,5.56
2019-03-12T08:53:48.081Z,5.53
2019-03-12T08:54:54.262Z,5.54
2019-03-12T08:55:49.082Z,5.65
2019-03-12T08:56:48.050Z,5.54
2019-03-12T08:57:48.042Z,5.61
2019-03-12T08:58:48.028Z,5.64
2019-03-12T08:59:48.019Z,5.57
2019-03-12T09:00:48.029Z,5.53
2019-03-12T09:01:47.994Z,5.56
2019-03-12T09:02:47.985Z,5.64
2019-03-12T09:03:47.973Z,5.54
2019-03-12T09:04:47.964Z,5.57
2019-03-12T09:05:47.978Z,5.64
2019-03-12T09:06:47.941Z,5.67
2019-03-12T09:07:47.931Z,5.71
2019-03-12T09:08:47.920Z,5.74
2019-03-12T09:09:47.911Z,5.82
2019-03-12T09:10:47.932Z,5.90
2019-03-12T09:11:47.893Z,5.96
2019-03-12T09:12:47.879Z,6.00
2019-03-12T09:13:47.867Z,6.03
2019-03-12T09:14:47.858Z,6.00
2019-03-12T09:15:47.871Z,6.08
2019-03-12T09:16:47.839Z,6.17
2019-03-12T09:17:47.828Z,6.15
2019-03-12T09:18:47.815Z,6.08
2019-03-12T09:19:47.805Z,6.14
2019-03-12T09:20:47.848Z,6.17
2019-03-12T09:21:47.855Z,6.21
2019-03-12T09:22:47.775Z,6.22
2019-03-12T09:23:47.763Z,6.25
2019-03-12T09:24:47.752Z,6.22
2019-03-12T09:25:47.772Z,6.21
2019-03-12T09:26:47.738Z,6.14
2019-03-12T09:27:47.720Z,6.15
2019-03-12T09:28:47.712Z,6.08
2019-03-12T09:29:47.699Z,6.08
2019-03-12T09:30:47.714Z,6.15
2019-03-12T09:31:47.683Z,6.27
2019-03-12T09:32:47.665Z,6.22
2019-03-12T09:33:47.657Z,6.36
2019-03-12T09:34:47.645Z,6.52
2019-03-12T09:35:47.660Z,6.55
2019-03-12T09:36:47.627Z,6.52
2019-03-12T09:37:47.619Z,6.62
2019-03-12T09:38:47.608Z,6.56
2019-03-12T09:39:47.591Z,6.58
2019-03-12T09:40:47.603Z,6.74
2019-03-12T09:41:47.568Z,6.85
2019-03-12T09:42:47.558Z,6.91
2019-03-12T09:43:48.303Z,7.05
2019-03-12T09:44:47.536Z,7.06
2019-03-12T09:45:47.551Z,7.24
2019-03-12T09:46:47.513Z,7.23
2019-03-12T09:47:47.504Z,7.31
2019-03-12T09:48:47.495Z,7.39
2019-03-12T09:49:47.492Z,7.37
2019-03-12T09:50:47.501Z,7.46
2019-03-12T09:51:47.462Z,7.37
2019-03-12T09:52:47.452Z,7.35
2019-03-12T09:53:47.443Z,7.32
2019-03-12T09:54:47.433Z,7.31
2019-03-12T09:55:47.446Z,7.42
2019-03-12T09:56:47.413Z,7.23
2019-03-12T09:57:47.399Z,7.05
2019-03-12T09:58:47.388Z,7.13
2019-03-12T09:59:47.377Z,7.10
2019-03-12T10:00:47.409Z,7.21
2019-03-12T10:01:47.357Z,7.09
2019-03-12T10:02:47.350Z,7.23
2019-03-12T10:03:47.337Z,7.10
2019-03-12T10:04:47.328Z,7.23
2019-03-12T10:05:47.340Z,7.25
2019-03-12T10:06:47.306Z,7.43
2019-03-12T10:07:47.295Z,7.42
2019-03-12T10:08:47.283Z,7.48
2019-03-12T10:09:47.273Z,7.63
2019-03-12T10:10:47.293Z,7.46
2019-03-12T10:11:47.253Z,7.61
2019-03-12T10:12:47.246Z,7.58
2019-03-12T10:13:47.233Z,7.79
2019-03-12T10:14:47.220Z,7.75
2019-03-12T10:15:47.239Z,7.86
2019-03-12T10:16:47.200Z,7.82
2019-03-12T10:17:47.190Z,7.68
2019-03-12T10:18:47.176Z,7.61
2019-03-12T10:19:47.166Z,7.68
2019-03-12T10:20:47.181Z,7.68
2019-03-12T10:21:47.161Z,7.75
2019-03-12T10:22:47.134Z,7.95
2019-03-12T10:23:47.127Z,8.00
2019-03-12T10:24:47.113Z,7.97
2019-03-12T10:25:47.124Z,7.93
2019-03-12T10:26:47.089Z,8.04
2019-03-12T10:27:47.078Z,8.11
2019-03-12T10:28:47.068Z,8.15
2019-03-12T10:29:47.059Z,8.04
2019-03-12T10:30:47.072Z,8.02
2019-03-12T10:31:47.041Z,8.10
2019-03-12T10:32:47.026Z,8.19
2019-03-12T10:33:47.018Z,8.23
2019-03-12T10:34:47.005Z,8.38
2019-03-12T10:35:47.015Z,8.40
2019-03-12T10:36:46.981Z,8.74
2019-03-12T10:37:46.974Z,8.71
2019-03-12T10:38:46.960Z,8.76
2019-03-12T10:39:46.951Z,8.65
2019-03-12T10:40:46.963Z,8.71
2019-03-12T10:41:46.927Z,8.80
2019-03-12T10:42:46.919Z,8.62
2019-03-12T10:43:46.906Z,8.68
2019-03-12T10:44:46.897Z,8.63
2019-03-12T10:45:46.911Z,8.68
2019-03-12T10:46:46.875Z,8.65
2019-03-12T10:47:46.869Z,8.65
2019-03-12T10:48:46.859Z,8.59
2019-03-12T10:49:46.842Z,8.70
2019-03-12T10:50:46.861Z,8.80
2019-03-12T10:51:46.821Z,8.96
2019-03-12T10:52:46.810Z,8.92
2019-03-12T10:53:46.799Z,8.80
2019-03-12T10:54:46.791Z,8.84
2019-03-12T10:55:46.802Z,9.04
2019-03-12T10:56:46.766Z,9.31
2019-03-12T10:57:46.756Z,9.56
2019-03-12T10:58:46.744Z,9.64
2019-03-12T10:59:46.735Z,9.74
2019-03-12T11:00:46.749Z,9.94
2019-03-12T11:01:46.722Z,9.75
2019-03-12T11:02:46.703Z,9.91
2019-03-12T11:03:46.692Z,10.63
2019-03-12T11:04:46.683Z,11.10
2019-03-12T11:05:46.695Z,11.47
2019-03-12T11:06:46.656Z,11.95
2019-03-12T11:07:46.647Z,12.56
2019-03-12T11:08:46.636Z,12.02
2019-03-12T11:09:46.779Z,11.57
2019-03-12T11:10:46.640Z,11.79
2019-03-12T11:11:46.603Z,12.21
2019-03-12T11:12:46.594Z,11.85
2019-03-12T11:13:46.585Z,10.82
2019-03-12T11:14:46.571Z,10.55
2019-03-12T11:15:46.587Z,10.71
2019-03-12T11:16:46.549Z,10.52
2019-03-12T11:17:49.978Z,10.05
2019-03-12T11:18:46.531Z,9.86
2019-03-12T11:19:46.517Z,9.75
2019-03-12T11:20:46.532Z,9.57
2019-03-12T11:21:46.494Z,9.64
2019-03-12T11:22:46.488Z,9.68
2019-03-12T11:23:46.479Z,10.70
2019-03-12T11:24:46.463Z,11.35
2019-03-12T11:25:46.478Z,11.32
2019-03-12T11:26:46.442Z,11.94
2019-03-12T11:27:46.439Z,12.19
2019-03-12T11:28:46.421Z,12.93
2019-03-12T11:29:46.410Z,14.00
2019-03-12T11:30:46.423Z,14.58
2019-03-12T11:31:46.388Z,14.65
2019-03-12T11:32:46.382Z,14.21
2019-03-12T11:33:46.369Z,13.29
2019-03-12T11:34:46.356Z,12.65
2019-03-12T11:35:46.393Z,11.90
2019-03-12T11:36:46.348Z,11.44
2019-03-12T11:37:46.324Z,11.39
2019-03-12T11:38:46.344Z,11.37
2019-03-12T11:39:46.304Z,10.86
2019-03-12T11:40:46.346Z,10.51
2019-03-12T11:41:46.299Z,10.29
2019-03-12T11:42:46.271Z,10.07
2019-03-12T11:43:46.288Z,9.90
2019-03-12T11:44:46.248Z,9.91
2019-03-12T11:45:46.292Z,9.97
2019-03-12T11:46:46.499Z,9.90
2019-03-12T11:47:46.221Z,9.86
2019-03-12T11:48:46.220Z,10.01
2019-03-12T11:49:46.199Z,10.02
2019-03-12T11:50:46.216Z,10.55
2019-03-12T11:51:46.174Z,11.40
2019-03-12T11:52:54.178Z,12.07
2019-03-12T11:53:47.690Z,12.65
2019-03-12T11:54:46.222Z,13.23
2019-03-12T11:55:46.169Z,12.87
2019-03-12T11:56:46.119Z,13.07
2019-03-12T11:57:46.109Z,13.19
2019-03-12T11:58:46.097Z,12.92
2019-03-12T11:59:46.084Z,12.17
2019-03-12T12:00:46.102Z,11.76
2019-03-12T12:01:46.064Z,11.00
2019-03-12T12:02:59.007Z,10.78
2019-03-12T12:03:47.040Z,10.96
2019-03-12T12:04:46.030Z,11.55
2019-03-12T12:05:46.042Z,11.43
2019-03-12T12:06:46.062Z,11.94
2019-03-12T12:07:46.017Z,12.31
2019-03-12T12:08:46.088Z,12.85
2019-03-12T12:09:46.043Z,13.20
2019-03-12T12:10:45.991Z,13.44
2019-03-12T12:11:45.954Z,12.92
2019-03-12T12:12:53.028Z,11.60
2019-03-12T12:13:45.933Z,11.18
2019-03-12T12:14:45.925Z,10.78
2019-03-12T12:15:45.937Z,11.24
2019-03-12T12:16:45.901Z,11.11
2019-03-12T12:17:45.890Z,11.07
2019-03-12T12:18:45.879Z,10.76
2019-03-12T12:19:45.867Z,10.63
2019-03-12T12:20:45.892Z,10.59
2019-03-12T12:21:45.897Z,10.70
2019-03-12T12:22:45.835Z,11.42
2019-03-12T12:23:45.821Z,11.64
2019-03-12T12:24:45.813Z,11.37
2019-03-12T12:25:45.827Z,11.36
2019-03-12T12:26:45.792Z,11.85
2019-03-12T12:27:45.781Z,12.04
2019-03-12T12:28:45.788Z,12.41
2019-03-12T12:29:45.758Z,12.64
2019-03-12T12:30:45.771Z,12.78
2019-03-12T12:31:47.475Z,13.11
2019-03-12T12:32:45.725Z,12.95
2019-03-12T12:33:45.717Z,12.93
2019-03-12T12:34:45.704Z,13.03
2019-03-12T12:35:45.716Z,13.11
2019-03-12T12:36:45.683Z,13.49
2019-03-12T12:37:45.674Z,13.38
2019-03-12T12:38:45.658Z,12.89
2019-03-12T12:39:45.652Z,12.85
2019-03-12T12:40:45.666Z,13.08
2019-03-12T12:41:45.628Z,13.38
2019-03-12T12:42:45.619Z,12.93
2019-03-12T12:43:45.607Z,13.07
2019-03-12T12:44:45.598Z,13.08
2019-03-12T12:45:45.611Z,13.17
2019-03-12T12:46:45.576Z,13.12
2019-03-12T12:47:45.563Z,13.38
2019-03-12T12:48:45.554Z,13.57
2019-03-12T12:49:45.545Z,13.62
2019-03-12T12:50:45.562Z,13.39
2019-03-12T12:51:45.571Z,13.29
2019-03-12T12:52:45.510Z,13.22
2019-03-12T12:53:45.500Z,13.25
2019-03-12T12:54:45.488Z,13.19
2019-03-12T12:55:45.502Z,13.30
2019-03-12T12:56:45.483Z,13.36
2019-03-12T12:57:45.459Z,12.79
2019-03-12T12:58:45.450Z,12.59
2019-03-12T12:59:45.435Z,12.59
2019-03-12T13:00:45.453Z,12.90
2019-03-12T13:01:45.416Z,12.70
2019-03-12T13:02:45.405Z,12.52
2019-03-12T13:03:45.397Z,12.39
2019-03-12T13:04:45.413Z,12.24
2019-03-12T13:05:45.397Z,12.16
2019-03-12T13:06:45.365Z,12.23
2019-03-12T13:07:45.360Z,12.28
2019-03-12T13:08:45.393Z,12.23
2019-03-12T13:09:45.330Z,12.20
2019-03-12T13:10:45.346Z,12.47
2019-03-12T13:11:45.308Z,12.56
2019-03-12T13:12:46.534Z,12.75
2019-03-12T13:13:45.284Z,12.41
2019-03-12T13:14:45.275Z,12.28